Terminal Aerodrome Forecast
Issued by NWS

Home | Current Version | Previous Version | Text Only | Print | Product List | Glossary On
Versions: 1 2 3 4 5 6 7 8 9 10 11 12 13 14 15 16 17 18
000
FTUS42 KJAX 021700
TAFCRG
TAF
KCRG 021721Z 0218/0318 20006KT P6SM SCT040 SCT250
     FM021900 12008KT P6SM VCTS SCT040CB BKN250
     FM022200 14007KT P6SM FEW040 BKN250
     FM030100 18003KT P6SM SCT250
     FM031400 19004KT P6SM SCT030 SCT250=

USA.gov is the U.S. government's official web portal to all federal, state and local government web resources and services.